Chany, Russia
Current Conditions -  °F | °C
As of 12:30 AM on Saturday 01 Nov 2014 (Local Time) from UNOO Reporting Station
Haze Haze  
Wind Chill: 27°   Ceiling: 6600
Heat Index: 34°   Visibility: 1.8mi
Dew Point: 34°   Wind: 9mph
Humidity: 100%   Direction: 200°SSW
Pressure: 30.12"   Gusts: NA
Location:  55.31°N, 76.75°E
Report Text: UNOO 311730Z 20004MPS 3000 BR BKN066 01/01 Q1020 25220055 NOSIGRMK QFE757
Loading
Personal Weather Stations






























Interactive Weather Map
Tropical Storm Tracking
New forecast layout! Learn more

10-Day Weather Forecast

Advertisements
Track Severe Weather on mobile